KBCT/BCT METAR and TAF weather

Enter ICAO airport designator
Station Type Date Time Source
KBCT METAR 2021/08/04 17:53 UTC NOAA

KBCT 041753Z 23005KT 1 1/2SM RA BKN008 23/21 A3011 RMK ATIS Z


Station Type Date Time Source
KBCT Decoded METAR 2021/08/04 17:53 UTC NOAA

Boca Raton, Boca Raton Airport, FL, United States (KBCT) 26-22-43N 080-06-28W
Aug 04, 2021 - 01:53 PM EDT / 2021.08.04 1753 UTC
Wind: from the SW (230 degrees) at 6 MPH (5 KT):0
Visibility: 1 1/2 mile(s):0
Sky conditions: mostly cloudy
Weather: rain
Temperature: 73 F (23 C)
Dew Point: 69 F (21 C)
Relative Humidity: 88%
Pressure (altimeter): 30.11 in. Hg (1019 hPa)
ob: KBCT 041753Z 23005KT 1 1/2SM RA BKN008 23/21 A3011 RMK ATIS Z
cycle: 18

Station Type Date Time Source
KBCT TAF 2020/02/03 18:20 UTC NOAA

TAF KBCT 031720Z 0318/0418 12005KT P6SM SKC
FM040000 VRB03KT P6SM SKC
FM041400 16011KT P6SM FEW030

Example: see airport list